« Back
NWS Peachtree City, Ga » Text Product » AHN Terminal Aerodrome Forecast


Printer-friendly Version
Current Version              Previous Versions:   1  2  3  4  5  6  7  8  9  

Terminal Aerodrome Forecast

503
FTUS42 KFFC 241700
TAFAHN
TAF
KAHN 241740Z 2418/2518 10007KT P6SM SKC
     FM242000 15005KT P6SM SCT060
     FM250000 10006KT P6SM BKN060
     FM250800 16005KT P6SM OVC050
     FM251200 20008KT P6SM SCT025 BKN050
     FM251500 23010G18KT P6SM BKN025=

USA.gov is the U.S. government's official web portal to all federal, state and local government web resources and services.